sensor_id;sensor_type;location;lat;lon;timestamp;pressure;altitude;pressure_sealevel;temperature;humidity
52651;BME280;38537;47.226;39.702;2022-07-15T00:00:07;100393.06;;;20.58;53.17
52651;BME280;38537;47.226;39.702;2022-07-15T00:02:37;100391.66;;;20.68;53.07
52651;BME280;38537;47.226;39.702;2022-07-15T00:05:06;100408.28;;;20.69;53.08
52651;BME280;38537;47.226;39.702;2022-07-15T00:07:35;100406.31;;;20.50;53.36
52651;BME280;38537;47.226;39.702;2022-07-15T00:10:04;100401.59;;;20.39;53.76
52651;BME280;38537;47.226;39.702;2022-07-15T00:12:50;100401.81;;;20.49;53.63
52651;BME280;38537;47.226;39.702;2022-07-15T00:15:21;100400.00;;;20.61;53.31
52651;BME280;38537;47.226;39.702;2022-07-15T00:17:49;100396.06;;;20.65;53.19
52651;BME280;38537;47.226;39.702;2022-07-15T00:20:19;100403.19;;;20.56;53.46
52651;BME280;38537;47.226;39.702;2022-07-15T00:22:47;100401.53;;;20.55;53.47
52651;BME280;38537;47.226;39.702;2022-07-15T00:25:15;100398.25;;;20.52;53.39
52651;BME280;38537;47.226;39.702;2022-07-15T00:27:53;100404.81;;;20.57;53.62
52651;BME280;38537;47.226;39.702;2022-07-15T00:30:22;100406.50;;;20.61;53.35
52651;BME280;38537;47.226;39.702;2022-07-15T00:32:51;100407.50;;;20.49;53.56
52651;BME280;38537;47.226;39.702;2022-07-15T00:35:18;100411.09;;;20.46;53.67
52651;BME280;38537;47.226;39.702;2022-07-15T00:37:45;100414.66;;;20.43;53.73
52651;BME280;38537;47.226;39.702;2022-07-15T00:40:13;100416.31;;;20.44;53.68
52651;BME280;38537;47.226;39.702;2022-07-15T00:42:41;100418.03;;;20.49;53.68
52651;BME280;38537;47.226;39.702;2022-07-15T00:45:20;100428.19;;;20.50;54.03
52651;BME280;38537;47.226;39.702;2022-07-15T00:47:50;100438.53;;;20.42;53.88
52651;BME280;38537;47.226;39.702;2022-07-15T00:50:21;100428.66;;;20.36;53.88
52651;BME280;38537;47.226;39.702;2022-07-15T00:52:53;100421.22;;;20.47;54.00
52651;BME280;38537;47.226;39.702;2022-07-15T00:55:22;100425.56;;;20.41;53.85
52651;BME280;38537;47.226;39.702;2022-07-15T00:57:55;100425.88;;;20.56;53.81
52651;BME280;38537;47.226;39.702;2022-07-15T01:00:24;100426.75;;;20.40;53.89
52651;BME280;38537;47.226;39.702;2022-07-15T01:02:52;100433.66;;;20.24;54.18
52651;BME280;38537;47.226;39.702;2022-07-15T01:05:21;100438.50;;;20.23;54.45
52651;BME280;38537;47.226;39.702;2022-07-15T01:07:49;100438.78;;;19.99;54.85
52651;BME280;38537;47.226;39.702;2022-07-15T01:10:21;100444.72;;;19.94;55.26
52651;BME280;38537;47.226;39.702;2022-07-15T01:12:50;100453.22;;;19.94;55.20
52651;BME280;38537;47.226;39.702;2022-07-15T01:15:24;100440.09;;;19.85;55.04
52651;BME280;38537;47.226;39.702;2022-07-15T01:17:52;100441.47;;;19.92;54.92
52651;BME280;38537;47.226;39.702;2022-07-15T01:20:21;100448.00;;;19.96;54.92
52651;BME280;38537;47.226;39.702;2022-07-15T01:22:54;100451.28;;;20.13;54.80
52651;BME280;38537;47.226;39.702;2022-07-15T01:25:26;100452.06;;;20.14;55.01
52651;BME280;38537;47.226;39.702;2022-07-15T01:27:54;100458.50;;;20.11;55.07
52651;BME280;38537;47.226;39.702;2022-07-15T01:30:24;100460.25;;;20.00;55.29
52651;BME280;38537;47.226;39.702;2022-07-15T01:32:52;100463.19;;;20.03;55.43
52651;BME280;38537;47.226;39.702;2022-07-15T01:35:20;100449.19;;;19.95;55.07
52651;BME280;38537;47.226;39.702;2022-07-15T01:37:48;100465.31;;;19.91;55.59
52651;BME280;38537;47.226;39.702;2022-07-15T01:40:16;100459.28;;;19.76;55.90
52651;BME280;38537;47.226;39.702;2022-07-15T01:42:44;100463.91;;;19.65;56.25
52651;BME280;38537;47.226;39.702;2022-07-15T01:45:14;100469.28;;;19.55;56.49
52651;BME280;38537;47.226;39.702;2022-07-15T01:47:46;100470.09;;;19.55;56.99
52651;BME280;38537;47.226;39.702;2022-07-15T01:50:34;100477.50;;;19.44;57.20
52651;BME280;38537;47.226;39.702;2022-07-15T01:53:09;100462.94;;;19.30;57.56
52651;BME280;38537;47.226;39.702;2022-07-15T01:55:37;100464.22;;;19.32;57.49
52651;BME280;38537;47.226;39.702;2022-07-15T01:58:05;100467.97;;;19.36;57.54
52651;BME280;38537;47.226;39.702;2022-07-15T02:00:32;100466.97;;;19.29;57.76
52651;BME280;38537;47.226;39.702;2022-07-15T02:03:00;100475.38;;;19.25;58.03
52651;BME280;38537;47.226;39.702;2022-07-15T02:05:28;100476.13;;;19.22;57.96
52651;BME280;38537;47.226;39.702;2022-07-15T02:07:56;100476.56;;;19.24;58.23
52651;BME280;38537;47.226;39.702;2022-07-15T02:10:24;100478.28;;;19.29;58.00
52651;BME280;38537;47.226;39.702;2022-07-15T02:12:52;100469.38;;;19.27;58.05
52651;BME280;38537;47.226;39.702;2022-07-15T02:15:44;100474.19;;;19.26;58.08
52651;BME280;38537;47.226;39.702;2022-07-15T02:18:12;100472.91;;;19.24;57.93
52651;BME280;38537;47.226;39.702;2022-07-15T02:20:39;100468.44;;;19.23;58.24
52651;BME280;38537;47.226;39.702;2022-07-15T02:23:06;100467.88;;;19.33;57.85
52651;BME280;38537;47.226;39.702;2022-07-15T02:25:34;100481.69;;;19.50;57.82
52651;BME280;38537;47.226;39.702;2022-07-15T02:28:04;100478.25;;;19.57;57.68
52651;BME280;38537;47.226;39.702;2022-07-15T02:30:37;100485.56;;;19.58;57.45
52651;BME280;38537;47.226;39.702;2022-07-15T02:33:06;100501.00;;;19.60;57.59
52651;BME280;38537;47.226;39.702;2022-07-15T02:35:34;100495.78;;;19.62;57.63
52651;BME280;38537;47.226;39.702;2022-07-15T02:38:03;100485.56;;;19.58;57.79
52651;BME280;38537;47.226;39.702;2022-07-15T02:40:31;100493.94;;;19.54;57.65
52651;BME280;38537;47.226;39.702;2022-07-15T02:43:00;100487.28;;;19.62;57.66
52651;BME280;38537;47.226;39.702;2022-07-15T02:45:30;100492.22;;;19.65;57.42
52651;BME280;38537;47.226;39.702;2022-07-15T02:48:04;100485.06;;;19.71;57.50
52651;BME280;38537;47.226;39.702;2022-07-15T02:50:35;100488.56;;;19.65;57.70
52651;BME280;38537;47.226;39.702;2022-07-15T02:53:04;100495.97;;;19.69;57.75
52651;BME280;38537;47.226;39.702;2022-07-15T02:55:34;100500.81;;;19.69;57.68
52651;BME280;38537;47.226;39.702;2022-07-15T02:58:01;100497.81;;;19.62;57.65
52651;BME280;38537;47.226;39.702;2022-07-15T03:00:29;100490.75;;;19.71;57.59
52651;BME280;38537;47.226;39.702;2022-07-15T03:03:00;100499.19;;;19.68;57.80
52651;BME280;38537;47.226;39.702;2022-07-15T03:05:29;100497.91;;;19.65;57.76
52651;BME280;38537;47.226;39.702;2022-07-15T03:07:56;100501.66;;;19.69;57.79
52651;BME280;38537;47.226;39.702;2022-07-15T03:10:24;100504.38;;;19.66;57.87
52651;BME280;38537;47.226;39.702;2022-07-15T03:12:51;100506.41;;;19.65;58.13
52651;BME280;38537;47.226;39.702;2022-07-15T03:15:19;100505.47;;;19.61;57.99
52651;BME280;38537;47.226;39.702;2022-07-15T03:17:46;100501.81;;;19.61;58.21
52651;BME280;38537;47.226;39.702;2022-07-15T03:20:14;100508.50;;;19.68;58.01
52651;BME280;38537;47.226;39.702;2022-07-15T03:22:50;100514.16;;;19.68;58.29
52651;BME280;38537;47.226;39.702;2022-07-15T03:25:17;100510.16;;;19.69;58.23
52651;BME280;38537;47.226;39.702;2022-07-15T03:27:45;100509.13;;;19.77;57.80
52651;BME280;38537;47.226;39.702;2022-07-15T03:30:13;100506.38;;;19.81;57.93
52651;BME280;38537;47.226;39.702;2022-07-15T03:32:42;100504.81;;;19.83;57.76
52651;BME280;38537;47.226;39.702;2022-07-15T03:35:10;100511.03;;;19.89;57.94
52651;BME280;38537;47.226;39.702;2022-07-15T03:37:38;100512.47;;;19.99;57.75
52651;BME280;38537;47.226;39.702;2022-07-15T03:40:06;100517.59;;;19.93;57.90
52651;BME280;38537;47.226;39.702;2022-07-15T03:42:36;100513.94;;;19.93;58.04
52651;BME280;38537;47.226;39.702;2022-07-15T03:45:03;100507.38;;;19.89;58.21
52651;BME280;38537;47.226;39.702;2022-07-15T03:47:31;100507.06;;;19.94;57.88
52651;BME280;38537;47.226;39.702;2022-07-15T03:50:01;100515.59;;;19.94;57.76
52651;BME280;38537;47.226;39.702;2022-07-15T03:52:30;100500.34;;;19.82;58.08
52651;BME280;38537;47.226;39.702;2022-07-15T03:54:57;100506.19;;;19.90;58.36
52651;BME280;38537;47.226;39.702;2022-07-15T03:57:25;100503.06;;;19.95;57.83
52651;BME280;38537;47.226;39.702;2022-07-15T03:59:53;100520.78;;;20.07;57.86
52651;BME280;38537;47.226;39.702;2022-07-15T04:02:21;100519.97;;;20.07;57.99
52651;BME280;38537;47.226;39.702;2022-07-15T04:04:49;100516.59;;;20.01;57.68
52651;BME280;38537;47.226;39.702;2022-07-15T04:07:17;100522.88;;;20.10;57.73
52651;BME280;38537;47.226;39.702;2022-07-15T04:09:44;100516.03;;;20.11;57.72
52651;BME280;38537;47.226;39.702;2022-07-15T04:12:11;100518.94;;;20.15;57.91
52651;BME280;38537;47.226;39.702;2022-07-15T04:14:39;100521.41;;;20.16;57.61
52651;BME280;38537;47.226;39.702;2022-07-15T04:17:07;100526.78;;;20.22;57.74
52651;BME280;38537;47.226;39.702;2022-07-15T04:19:37;100506.03;;;20.17;57.50
52651;BME280;38537;47.226;39.702;2022-07-15T04:22:05;100527.25;;;20.24;57.81
52651;BME280;38537;47.226;39.702;2022-07-15T04:24:39;100513.88;;;20.24;57.73
52651;BME280;38537;47.226;39.702;2022-07-15T04:27:11;100504.19;;;20.25;57.72
52651;BME280;38537;47.226;39.702;2022-07-15T04:29:38;100518.44;;;20.44;57.42
52651;BME280;38537;47.226;39.702;2022-07-15T04:32:08;100522.34;;;20.56;57.42
52651;BME280;38537;47.226;39.702;2022-07-15T04:34:39;100511.41;;;20.58;57.14
52651;BME280;38537;47.226;39.702;2022-07-15T04:37:06;100519.88;;;20.73;56.84
52651;BME280;38537;47.226;39.702;2022-07-15T04:39:36;100520.91;;;20.84;56.84
52651;BME280;38537;47.226;39.702;2022-07-15T04:42:04;100527.78;;;20.83;56.64
52651;BME280;38537;47.226;39.702;2022-07-15T04:44:35;100515.31;;;20.88;56.59
52651;BME280;38537;47.226;39.702;2022-07-15T04:47:05;100511.28;;;20.89;56.34
52651;BME280;38537;47.226;39.702;2022-07-15T04:49:37;100505.66;;;21.12;55.87
52651;BME280;38537;47.226;39.702;2022-07-15T04:52:26;100507.28;;;21.13;55.67
52651;BME280;38537;47.226;39.702;2022-07-15T04:54:54;100514.38;;;21.23;55.35
52651;BME280;38537;47.226;39.702;2022-07-15T04:57:21;100525.88;;;21.30;55.07
52651;BME280;38537;47.226;39.702;2022-07-15T04:59:49;100512.13;;;21.32;54.92
52651;BME280;38537;47.226;39.702;2022-07-15T05:02:17;100499.44;;;21.26;54.75
52651;BME280;38537;47.226;39.702;2022-07-15T05:04:47;100509.22;;;21.28;54.69
52651;BME280;38537;47.226;39.702;2022-07-15T05:07:17;100501.81;;;21.24;54.75
52651;BME280;38537;47.226;39.702;2022-07-15T05:09:46;100520.22;;;21.30;54.57
52651;BME280;38537;47.226;39.702;2022-07-15T05:12:14;100513.78;;;21.33;54.11
52651;BME280;38537;47.226;39.702;2022-07-15T05:14:50;100502.41;;;21.33;54.48
52651;BME280;38537;47.226;39.702;2022-07-15T05:17:18;100524.19;;;21.48;54.67
52651;BME280;38537;47.226;39.702;2022-07-15T05:19:46;100530.03;;;21.55;54.16
52651;BME280;38537;47.226;39.702;2022-07-15T05:22:19;100518.00;;;21.65;54.09
52651;BME280;38537;47.226;39.702;2022-07-15T05:24:47;100516.63;;;21.78;54.02
52651;BME280;38537;47.226;39.702;2022-07-15T05:27:15;100524.69;;;21.99;53.31
52651;BME280;38537;47.226;39.702;2022-07-15T05:29:46;100522.81;;;22.07;53.04
52651;BME280;38537;47.226;39.702;2022-07-15T05:32:15;100528.06;;;22.05;52.80
52651;BME280;38537;47.226;39.702;2022-07-15T05:34:44;100518.44;;;21.90;53.10
52651;BME280;38537;47.226;39.702;2022-07-15T05:37:13;100523.50;;;22.00;52.90
52651;BME280;38537;47.226;39.702;2022-07-15T05:39:41;100531.66;;;22.02;52.99
52651;BME280;38537;47.226;39.702;2022-07-15T05:42:37;100528.88;;;22.05;52.75
52651;BME280;38537;47.226;39.702;2022-07-15T05:45:06;100519.09;;;22.03;52.70
52651;BME280;38537;47.226;39.702;2022-07-15T05:47:34;100523.78;;;22.18;52.68
52651;BME280;38537;47.226;39.702;2022-07-15T05:50:03;100518.66;;;22.27;52.67
52651;BME280;38537;47.226;39.702;2022-07-15T05:52:31;100524.59;;;22.45;52.39
52651;BME280;38537;47.226;39.702;2022-07-15T05:55:02;100519.09;;;22.59;51.97
52651;BME280;38537;47.226;39.702;2022-07-15T05:57:32;100507.94;;;22.77;51.12
52651;BME280;38537;47.226;39.702;2022-07-15T05:59:59;100514.13;;;22.82;50.60
52651;BME280;38537;47.226;39.702;2022-07-15T06:02:29;100510.25;;;22.98;50.60
52651;BME280;38537;47.226;39.702;2022-07-15T06:04:58;100501.78;;;23.05;50.45
52651;BME280;38537;47.226;39.702;2022-07-15T06:07:25;100506.38;;;23.13;49.76
52651;BME280;38537;47.226;39.702;2022-07-15T06:09:54;100510.22;;;22.94;48.62
52651;BME280;38537;47.226;39.702;2022-07-15T06:12:21;100516.25;;;22.89;48.84
52651;BME280;38537;47.226;39.702;2022-07-15T06:14:49;100495.03;;;22.83;48.88
52651;BME280;38537;47.226;39.702;2022-07-15T06:17:18;100500.06;;;22.97;49.14
52651;BME280;38537;47.226;39.702;2022-07-15T06:19:47;100496.91;;;23.05;49.33
52651;BME280;38537;47.226;39.702;2022-07-15T06:22:14;100495.41;;;23.15;48.59
52651;BME280;38537;47.226;39.702;2022-07-15T06:24:41;100505.31;;;23.28;48.24
52651;BME280;38537;47.226;39.702;2022-07-15T06:27:09;100504.13;;;23.33;47.91
52651;BME280;38537;47.226;39.702;2022-07-15T06:29:36;100515.16;;;23.34;47.30
52651;BME280;38537;47.226;39.702;2022-07-15T06:32:04;100513.56;;;23.37;47.03
52651;BME280;38537;47.226;39.702;2022-07-15T06:34:31;100501.38;;;23.43;47.30
52651;BME280;38537;47.226;39.702;2022-07-15T06:36:59;100506.84;;;23.55;47.25
52651;BME280;38537;47.226;39.702;2022-07-15T06:39:26;100495.47;;;23.59;47.09
52651;BME280;38537;47.226;39.702;2022-07-15T06:41:53;100504.09;;;23.70;46.80
52651;BME280;38537;47.226;39.702;2022-07-15T06:44:22;100513.13;;;23.75;46.06
52651;BME280;38537;47.226;39.702;2022-07-15T06:46:55;100510.28;;;23.75;46.09
52651;BME280;38537;47.226;39.702;2022-07-15T06:49:28;100509.47;;;23.78;46.05
52651;BME280;38537;47.226;39.702;2022-07-15T06:51:55;100511.41;;;23.67;45.84
52651;BME280;38537;47.226;39.702;2022-07-15T06:54:23;100500.81;;;23.68;45.96
52651;BME280;38537;47.226;39.702;2022-07-15T06:56:50;100509.09;;;23.80;45.77
52651;BME280;38537;47.226;39.702;2022-07-15T06:59:17;100507.47;;;23.82;45.63
52651;BME280;38537;47.226;39.702;2022-07-15T07:01:45;100487.56;;;23.89;46.63
52651;BME280;38537;47.226;39.702;2022-07-15T07:04:13;100483.59;;;24.01;45.85
52651;BME280;38537;47.226;39.702;2022-07-15T07:06:41;100495.88;;;24.12;45.05
52651;BME280;38537;47.226;39.702;2022-07-15T07:09:08;100496.66;;;24.09;44.87
52651;BME280;38537;47.226;39.702;2022-07-15T07:11:36;100507.59;;;23.97;45.08
52651;BME280;38537;47.226;39.702;2022-07-15T07:14:03;100501.06;;;23.96;45.16
52651;BME280;38537;47.226;39.702;2022-07-15T07:16:31;100501.84;;;23.93;44.52
52651;BME280;38537;47.226;39.702;2022-07-15T07:18:59;100504.25;;;23.87;43.69
52651;BME280;38537;47.226;39.702;2022-07-15T07:21:27;100500.53;;;23.83;44.37
52651;BME280;38537;47.226;39.702;2022-07-15T07:23:58;100498.53;;;23.87;44.71
52651;BME280;38537;47.226;39.702;2022-07-15T07:26:26;100485.03;;;23.77;44.78
52651;BME280;38537;47.226;39.702;2022-07-15T07:28:53;100483.41;;;23.76;44.37
52651;BME280;38537;47.226;39.702;2022-07-15T07:31:21;100489.97;;;23.87;44.54
52651;BME280;38537;47.226;39.702;2022-07-15T07:33:55;100496.06;;;23.82;44.20
52651;BME280;38537;47.226;39.702;2022-07-15T07:36:23;100500.97;;;23.85;43.86
52651;BME280;38537;47.226;39.702;2022-07-15T07:38:51;100487.63;;;23.97;44.29
52651;BME280;38537;47.226;39.702;2022-07-15T07:41:20;100490.50;;;24.04;43.71
52651;BME280;38537;47.226;39.702;2022-07-15T07:43:47;100482.78;;;24.01;44.01
52651;BME280;38537;47.226;39.702;2022-07-15T07:46:15;100470.09;;;23.95;44.08
52651;BME280;38537;47.226;39.702;2022-07-15T07:48:44;100479.63;;;24.20;44.25
52651;BME280;38537;47.226;39.702;2022-07-15T07:51:11;100474.41;;;24.29;44.27
52651;BME280;38537;47.226;39.702;2022-07-15T07:53:38;100478.59;;;24.46;43.65
52651;BME280;38537;47.226;39.702;2022-07-15T07:56:06;100474.91;;;24.45;42.76
52651;BME280;38537;47.226;39.702;2022-07-15T07:58:33;100472.06;;;24.49;42.48
52651;BME280;38537;47.226;39.702;2022-07-15T08:01:01;100461.81;;;24.37;43.05
52651;BME280;38537;47.226;39.702;2022-07-15T08:03:28;100480.69;;;24.59;43.29
52651;BME280;38537;47.226;39.702;2022-07-15T08:05:56;100483.16;;;24.65;42.57
52651;BME280;38537;47.226;39.702;2022-07-15T08:08:24;100480.72;;;24.67;41.82
52651;BME280;38537;47.226;39.702;2022-07-15T08:10:54;100478.66;;;24.60;41.24
52651;BME280;38537;47.226;39.702;2022-07-15T08:13:25;100485.94;;;24.50;40.51
52651;BME280;38537;47.226;39.702;2022-07-15T08:15:54;100467.97;;;24.50;40.39
52651;BME280;38537;47.226;39.702;2022-07-15T08:18:31;100488.41;;;24.52;40.37
52651;BME280;38537;47.226;39.702;2022-07-15T08:20:58;100475.78;;;24.56;40.38
52651;BME280;38537;47.226;39.702;2022-07-15T08:23:25;100464.00;;;24.65;41.49
52651;BME280;38537;47.226;39.702;2022-07-15T08:25:53;100465.72;;;24.87;41.38
52651;BME280;38537;47.226;39.702;2022-07-15T08:28:20;100460.84;;;24.95;40.97
52651;BME280;38537;47.226;39.702;2022-07-15T08:31:08;100462.47;;;24.96;40.23
52651;BME280;38537;47.226;39.702;2022-07-15T08:33:36;100446.06;;;24.72;40.17
52651;BME280;38537;47.226;39.702;2022-07-15T08:36:04;100467.34;;;24.88;40.70
52651;BME280;38537;47.226;39.702;2022-07-15T08:38:32;100457.53;;;24.93;40.12
52651;BME280;38537;47.226;39.702;2022-07-15T08:40:59;100473.94;;;25.03;40.24
52651;BME280;38537;47.226;39.702;2022-07-15T08:43:26;100463.31;;;25.00;39.25
52651;BME280;38537;47.226;39.702;2022-07-15T08:45:54;100462.88;;;24.94;38.58
52651;BME280;38537;47.226;39.702;2022-07-15T08:48:31;100470.59;;;24.94;37.99
52651;BME280;38537;47.226;39.702;2022-07-15T08:51:03;100464.88;;;24.83;38.69
52651;BME280;38537;47.226;39.702;2022-07-15T08:53:34;100452.59;;;24.72;38.44
52651;BME280;38537;47.226;39.702;2022-07-15T08:56:01;100443.28;;;24.89;38.86
52651;BME280;38537;47.226;39.702;2022-07-15T08:58:29;100446.59;;;25.02;38.85
52651;BME280;38537;47.226;39.702;2022-07-15T09:01:17;100441.72;;;25.17;39.10
52651;BME280;38537;47.226;39.702;2022-07-15T09:03:45;100436.81;;;25.21;38.82
52651;BME280;38537;47.226;39.702;2022-07-15T09:06:42;100453.16;;;25.35;38.26
52651;BME280;38537;47.226;39.702;2022-07-15T09:09:32;100438.47;;;25.40;37.81
52651;BME280;38537;47.226;39.702;2022-07-15T09:12:07;100442.16;;;25.44;37.71
52651;BME280;38537;47.226;39.702;2022-07-15T09:14:42;100434.00;;;25.46;37.82
52651;BME280;38537;47.226;39.702;2022-07-15T09:20:04;100442.97;;;25.58;37.52
52651;BME280;38537;47.226;39.702;2022-07-15T09:22:46;100438.88;;;25.42;37.79
52651;BME280;38537;47.226;39.702;2022-07-15T09:25:14;100447.06;;;25.47;37.88
52651;BME280;38537;47.226;39.702;2022-07-15T09:27:43;100419.69;;;25.60;38.65
52651;BME280;38537;47.226;39.702;2022-07-15T09:30:22;100433.63;;;25.72;37.69
52651;BME280;38537;47.226;39.702;2022-07-15T09:33:40;100415.63;;;25.72;38.03
52651;BME280;38537;47.226;39.702;2022-07-15T09:36:22;100425.44;;;25.74;37.39
52651;BME280;38537;47.226;39.702;2022-07-15T09:41:30;100428.28;;;25.81;37.62
52651;BME280;38537;47.226;39.702;2022-07-15T09:46:44;100411.94;;;25.85;37.68
52651;BME280;38537;47.226;39.702;2022-07-15T09:49:13;100410.69;;;25.86;37.67
52651;BME280;38537;47.226;39.702;2022-07-15T09:51:51;100419.28;;;25.90;37.30
52651;BME280;38537;47.226;39.702;2022-07-15T09:54:25;100418.88;;;25.88;36.99
52651;BME280;38537;47.226;39.702;2022-07-15T09:56:53;100394.75;;;25.78;37.22
52651;BME280;38537;47.226;39.702;2022-07-15T09:59:20;100406.59;;;25.94;37.32
52651;BME280;38537;47.226;39.702;2022-07-15T10:01:48;100408.19;;;26.06;37.73
52651;BME280;38537;47.226;39.702;2022-07-15T10:04:18;100410.25;;;26.13;37.53
52651;BME280;38537;47.226;39.702;2022-07-15T10:06:48;100386.53;;;26.05;37.48
52651;BME280;38537;47.226;39.702;2022-07-15T10:09:36;100392.59;;;26.25;37.10
52651;BME280;38537;47.226;39.702;2022-07-15T10:12:11;100388.94;;;26.32;36.89
52651;BME280;38537;47.226;39.702;2022-07-15T10:20:19;100378.19;;;26.57;38.23
52651;BME280;38537;47.226;39.702;2022-07-15T10:39:28;100365.81;;;27.33;37.07
52651;BME280;38537;47.226;39.702;2022-07-15T10:42:03;100353.53;;;27.33;36.47
52651;BME280;38537;47.226;39.702;2022-07-15T10:44:34;100355.56;;;27.36;36.80
52651;BME280;38537;47.226;39.702;2022-07-15T10:49:44;100350.66;;;27.33;35.29
52651;BME280;38537;47.226;39.702;2022-07-15T10:54:49;100354.38;;;27.29;35.31
52651;BME280;38537;47.226;39.702;2022-07-15T10:57:18;100329.13;;;27.10;35.26
52651;BME280;38537;47.226;39.702;2022-07-15T10:59:50;100343.16;;;27.01;34.92
52651;BME280;38537;47.226;39.702;2022-07-15T11:02:19;100337.44;;;26.94;35.35
52651;BME280;38537;47.226;39.702;2022-07-15T11:04:48;100329.22;;;27.00;35.16
52651;BME280;38537;47.226;39.702;2022-07-15T11:15:18;100323.16;;;27.39;34.64
52651;BME280;38537;47.226;39.702;2022-07-15T11:17:48;100317.44;;;27.35;34.82
52651;BME280;38537;47.226;39.702;2022-07-15T11:20:30;100311.31;;;27.33;34.84
52651;BME280;38537;47.226;39.702;2022-07-15T11:22:58;100299.03;;;27.33;35.13
52651;BME280;38537;47.226;39.702;2022-07-15T11:25:41;100305.50;;;27.44;35.17
52651;BME280;38537;47.226;39.702;2022-07-15T11:28:14;100304.59;;;27.50;34.96
52651;BME280;38537;47.226;39.702;2022-07-15T11:30:44;100300.06;;;27.53;34.42
52651;BME280;38537;47.226;39.702;2022-07-15T11:33:16;100304.94;;;27.59;34.38
52651;BME280;38537;47.226;39.702;2022-07-15T11:35:49;100303.75;;;27.53;33.60
52651;BME280;38537;47.226;39.702;2022-07-15T11:38:29;100298.44;;;27.52;32.99
52651;BME280;38537;47.226;39.702;2022-07-15T11:41:01;100299.72;;;27.47;32.81
52651;BME280;38537;47.226;39.702;2022-07-15T11:44:04;100294.69;;;27.62;32.80
52651;BME280;38537;47.226;39.702;2022-07-15T11:46:51;100287.25;;;27.68;32.63
52651;BME280;38537;47.226;39.702;2022-07-15T11:49:31;100278.63;;;27.68;32.28
52651;BME280;38537;47.226;39.702;2022-07-15T11:52:00;100283.03;;;27.76;32.57
52651;BME280;38537;47.226;39.702;2022-07-15T11:57:53;100269.06;;;27.78;32.86
52651;BME280;38537;47.226;39.702;2022-07-15T12:00:29;100281.25;;;27.89;32.58
52651;BME280;38537;47.226;39.702;2022-07-15T12:03:07;100271.78;;;27.92;32.88
52651;BME280;38537;47.226;39.702;2022-07-15T12:05:35;100252.13;;;27.91;33.15
52651;BME280;38537;47.226;39.702;2022-07-15T12:08:03;100271.97;;;28.09;33.25
52651;BME280;38537;47.226;39.702;2022-07-15T12:10:35;100258.47;;;28.06;31.74
52651;BME280;38537;47.226;39.702;2022-07-15T12:13:02;100261.00;;;28.00;32.20
52651;BME280;38537;47.226;39.702;2022-07-15T12:15:33;100258.19;;;27.96;32.29
52651;BME280;38537;47.226;39.702;2022-07-15T12:18:02;100265.94;;;27.99;32.25
52651;BME280;38537;47.226;39.702;2022-07-15T12:20:30;100259.41;;;27.95;32.32
52651;BME280;38537;47.226;39.702;2022-07-15T12:23:10;100269.91;;;28.09;32.28
52651;BME280;38537;47.226;39.702;2022-07-15T12:25:37;100259.56;;;28.15;32.44
52651;BME280;38537;47.226;39.702;2022-07-15T12:28:06;100255.34;;;28.27;33.39
52651;BME280;38537;47.226;39.702;2022-07-15T12:30:37;100261.69;;;28.42;32.38
52651;BME280;38537;47.226;39.702;2022-07-15T12:33:21;100248.81;;;28.53;32.56
52651;BME280;38537;47.226;39.702;2022-07-15T12:35:50;100256.72;;;28.46;30.82
52651;BME280;38537;47.226;39.702;2022-07-15T12:38:37;100255.72;;;28.29;29.94
52651;BME280;38537;47.226;39.702;2022-07-15T12:41:06;100260.22;;;28.30;30.36
52651;BME280;38537;47.226;39.702;2022-07-15T12:43:54;100250.25;;;28.38;30.13
52651;BME280;38537;47.226;39.702;2022-07-15T12:49:42;100248.78;;;28.26;30.49
52651;BME280;38537;47.226;39.702;2022-07-15T12:54:53;100250.38;;;28.31;31.39
52651;BME280;38537;47.226;39.702;2022-07-15T12:57:28;100251.06;;;28.39;31.42
52651;BME280;38537;47.226;39.702;2022-07-15T13:05:41;100251.63;;;28.57;31.24
52651;BME280;38537;47.226;39.702;2022-07-15T13:08:10;100250.75;;;28.60;31.53
52651;BME280;38537;47.226;39.702;2022-07-15T13:10:40;100248.75;;;28.57;31.36
52651;BME280;38537;47.226;39.702;2022-07-15T13:13:09;100252.44;;;28.57;31.03
52651;BME280;38537;47.226;39.702;2022-07-15T13:15:37;100234.53;;;28.46;31.55
52651;BME280;38537;47.226;39.702;2022-07-15T13:18:04;100228.19;;;28.58;31.68
52651;BME280;38537;47.226;39.702;2022-07-15T13:20:32;100243.59;;;28.72;32.03
52651;BME280;38537;47.226;39.702;2022-07-15T13:22:59;100238.97;;;28.78;32.41
52651;BME280;38537;47.226;39.702;2022-07-15T13:25:29;100240.19;;;28.80;31.96
52651;BME280;38537;47.226;39.702;2022-07-15T13:27:57;100242.00;;;28.94;32.40
52651;BME280;38537;47.226;39.702;2022-07-15T13:30:25;100234.88;;;29.02;32.91
52651;BME280;38537;47.226;39.702;2022-07-15T13:32:53;100225.38;;;29.05;32.41
52651;BME280;38537;47.226;39.702;2022-07-15T13:35:20;100235.00;;;29.18;32.09
52651;BME280;38537;47.226;39.702;2022-07-15T13:37:47;100220.25;;;29.16;32.36
52651;BME280;38537;47.226;39.702;2022-07-15T13:40:15;100228.66;;;29.27;32.20
52651;BME280;38537;47.226;39.702;2022-07-15T13:42:43;100231.81;;;29.36;31.93
52651;BME280;38537;47.226;39.702;2022-07-15T13:45:11;100232.25;;;29.34;31.59
52651;BME280;38537;47.226;39.702;2022-07-15T13:47:40;100221.34;;;29.46;32.75
52651;BME280;38537;47.226;39.702;2022-07-15T13:50:08;100216.34;;;29.50;31.88
52651;BME280;38537;47.226;39.702;2022-07-15T13:52:57;100224.63;;;29.67;31.78
52651;BME280;38537;47.226;39.702;2022-07-15T13:55:26;100228.97;;;29.76;32.02